»·PEaware :: AAL578 KPHX-KSEA

AAL578 :: KPHX-KSEA

FLIGHT INFORMATION

Flight Status: Arrived
Operator:
American Airlines
More flights by this operator :: More flights under this callsign
Pilot: Matthew M. (8235)
Aircraft: AIRBUS A319
(A319)
More flights by this aircraft type
Origin: KPHX Phoenix Sky Harbor Intl
United States
Destination: KSEA Seattle-Tacoma Intl
United States
More flights between these airports :: More routes between these airports
Route: QUAKY1 GCN WINEN Q35 NEERO IMB CHINS4
File this flight plan on PilotEdge
Remarks:
Altitude:
(Current/Filed)
36,000ft
Speed:
(Current/Filed)
448kts
Departed: 06-Oct-20 02:16 PM
Arrived: 06-Oct-20 04:41 PM
Distance/Time
Traveled:
961nm/2:25
Distance/Time
To Go:
Arrived

Flight Plot

Page will automatically refresh every two minutes.

Flight plan parsing failed; only flown route is shown


Map Options




Map Legend


Flown Route
Filed Route
Departure Airport
Arrival Airport
Navaid (VOR, NDB)
Fix

Horizontal Profiles

Position Reports

Time Latitude Longitude Heading Altitude Ground
Speed
06-Oct-20 13:56 33.438257 -111.994560 180 1117ft 0kts
06-Oct-20 13:57 33.438257 -111.994560 180 1117ft 0kts
06-Oct-20 13:58 33.438257 -111.994560 180 1117ft 0kts
06-Oct-20 13:59 33.438258 -111.994560 179 1117ft 0kts
06-Oct-20 14:00 33.438258 -111.994560 179 1117ft 0kts
06-Oct-20 14:01 33.438258 -111.994560 179 1117ft 0kts
06-Oct-20 14:02 33.438258 -111.994560 179 1117ft 0kts
06-Oct-20 14:03 33.438258 -111.994560 179 1117ft 0kts
06-Oct-20 14:04 33.438258 -111.994560 179 1117ft 0kts
06-Oct-20 14:05 33.438258 -111.994560 179 1117ft 0kts
06-Oct-20 14:06 33.438258 -111.994560 179 1117ft 0kts
06-Oct-20 14:07 33.438258 -111.994560 179 1117ft 0kts
06-Oct-20 14:08 33.438445 -111.994562 201 1117ft 0kts
06-Oct-20 14:09 33.439013 -111.993922 269 1117ft 0kts
06-Oct-20 14:11 33.439013 -111.993922 269 1117ft 0kts
06-Oct-20 14:12 33.439046 -111.997359 270 1124ft 23kts
06-Oct-20 14:13 33.439045 -112.005613 269 1130ft 24kts
06-Oct-20 14:14 33.439042 -112.013745 270 1126ft 24kts
06-Oct-20 14:15 33.440593 -112.016864 37 1124ft 11kts
06-Oct-20 14:16 33.440800 -111.987483 90 1386ft 166kts
06-Oct-20 14:17 33.438439 -111.931170 94 3282ft 186kts
06-Oct-20 14:18 33.444701 -111.861872 42 4635ft 251kts
06-Oct-20 14:19 33.518092 -111.847320 3 7001ft 287kts
06-Oct-20 14:20 33.599365 -111.840974 4 9733ft 301kts
06-Oct-20 14:21 33.687809 -111.844478 349 11322ft 350kts
06-Oct-20 14:22 33.787109 -111.867153 349 13648ft 370kts
06-Oct-20 14:23 33.889519 -111.890251 349 16007ft 382kts
06-Oct-20 14:24 33.995595 -111.914141 349 18201ft 393kts
06-Oct-20 14:25 34.104643 -111.937179 353 20205ft 404kts
06-Oct-20 14:26 34.217727 -111.949700 354 22107ft 414kts
06-Oct-20 14:26 34.313768 -111.960244 354 23595ft 421kts
06-Oct-20 14:28 34.451501 -111.975484 354 25483ft 432kts
06-Oct-20 14:29 34.572253 -111.988843 354 26945ft 441kts
06-Oct-20 14:29 34.674497 -112.000148 354 28023ft 448kts
06-Oct-20 14:31 34.820140 -112.016387 354 29413ft 456kts
06-Oct-20 14:31 34.926229 -112.028374 355 30313ft 462kts
06-Oct-20 14:32 35.054773 -112.042923 355 31353ft 467kts
06-Oct-20 14:33 35.183241 -112.057389 355 32709ft 462kts
06-Oct-20 14:34 35.310669 -112.071833 355 33869ft 458kts
06-Oct-20 14:35 35.436620 -112.085197 356 34873ft 455kts
06-Oct-20 14:36 35.562074 -112.097928 355 35733ft 453kts
06-Oct-20 14:37 35.687104 -112.113137 355 36373ft 452kts
06-Oct-20 14:38 35.811227 -112.128056 355 36392ft 451kts
06-Oct-20 14:39 35.935444 -112.149658 346 36392ft 452kts
06-Oct-20 14:40 36.052330 -112.206975 332 36393ft 454kts
06-Oct-20 14:41 36.163331 -112.281574 332 36392ft 454kts
06-Oct-20 14:42 36.274028 -112.355873 332 36392ft 454kts
06-Oct-20 14:43 36.384742 -112.430421 332 36390ft 454kts
06-Oct-20 14:44 36.495466 -112.505228 332 36354ft 454kts
06-Oct-20 14:45 36.606037 -112.580175 332 36305ft 454kts
06-Oct-20 14:46 36.716797 -112.655509 331 36286ft 454kts
06-Oct-20 14:47 36.827605 -112.731587 331 36284ft 455kts
06-Oct-20 14:48 36.938038 -112.807266 331 36283ft 454kts
06-Oct-20 14:49 37.048878 -112.883396 331 36283ft 457kts
06-Oct-20 14:50 37.160576 -112.960196 331 36284ft 459kts
06-Oct-20 14:51 37.271953 -113.037030 331 36284ft 457kts
06-Oct-20 14:52 37.382859 -113.113993 331 36283ft 457kts
06-Oct-20 14:53 37.494043 -113.191413 331 36306ft 457kts
06-Oct-20 14:54 37.605008 -113.268943 331 36317ft 457kts
06-Oct-20 14:55 37.715911 -113.346700 331 36319ft 457kts
06-Oct-20 14:56 37.826903 -113.424795 331 36319ft 457kts
06-Oct-20 14:57 37.935882 -113.506083 325 36319ft 457kts
06-Oct-20 14:58 38.033843 -113.608212 319 36319ft 457kts
06-Oct-20 14:59 38.130458 -113.713450 319 36318ft 457kts
06-Oct-20 15:00 38.226728 -113.818007 319 36312ft 457kts
06-Oct-20 15:01 38.323178 -113.923251 319 36304ft 457kts
06-Oct-20 15:02 38.419375 -114.028627 319 36303ft 457kts
06-Oct-20 15:03 38.515610 -114.134430 319 36316ft 457kts
06-Oct-20 15:04 38.611733 -114.240498 319 36339ft 457kts
06-Oct-20 15:05 38.707487 -114.346551 319 36353ft 457kts
06-Oct-20 15:06 38.803460 -114.453236 319 36355ft 457kts
06-Oct-20 15:07 38.899169 -114.560027 319 36356ft 457kts
06-Oct-20 15:08 38.995042 -114.667444 318 36355ft 457kts
06-Oct-20 15:09 39.090291 -114.774966 318 36356ft 457kts
06-Oct-20 15:10 39.185909 -114.882436 318 36355ft 457kts
06-Oct-20 15:11 39.281168 -114.990175 318 36355ft 457kts
06-Oct-20 15:12 39.376906 -115.098998 318 36355ft 461kts
06-Oct-20 15:13 39.473239 -115.208933 318 36355ft 464kts
06-Oct-20 15:14 39.569762 -115.319506 318 36355ft 465kts
06-Oct-20 15:15 39.666266 -115.430492 318 36355ft 465kts
06-Oct-20 15:16 39.762634 -115.541754 318 36355ft 465kts
06-Oct-20 15:17 39.859121 -115.653594 317 36333ft 464kts
06-Oct-20 15:18 39.955169 -115.765820 317 36309ft 465kts
06-Oct-20 15:19 40.051291 -115.878207 318 36303ft 465kts
06-Oct-20 15:20 40.147435 -115.990683 318 36303ft 465kts
06-Oct-20 15:21 40.243235 -116.103134 318 36303ft 465kts
06-Oct-20 15:22 40.339176 -116.216518 318 36301ft 465kts
06-Oct-20 15:23 40.434991 -116.330242 318 36289ft 465kts
06-Oct-20 15:24 40.530418 -116.443963 318 36258ft 465kts
06-Oct-20 15:25 40.625973 -116.558294 318 36250ft 465kts
06-Oct-20 15:26 40.721499 -116.673116 317 36249ft 465kts
06-Oct-20 15:27 40.816398 -116.788025 317 36249ft 465kts
06-Oct-20 15:28 40.911808 -116.903627 317 36249ft 465kts
06-Oct-20 15:29 41.006968 -117.019291 316 36249ft 465kts
06-Oct-20 15:30 41.101609 -117.134893 316 36249ft 463kts
06-Oct-20 15:31 41.196328 -117.250491 316 36245ft 462kts
06-Oct-20 15:32 41.290459 -117.366294 316 36241ft 462kts
06-Oct-20 15:33 41.384211 -117.482204 316 36238ft 462kts
06-Oct-20 15:34 41.478128 -117.598808 316 36238ft 462kts
06-Oct-20 15:35 41.571825 -117.715905 315 36238ft 462kts
06-Oct-20 15:36 41.665545 -117.833402 315 36236ft 462kts
06-Oct-20 15:37 41.758912 -117.950407 317 36227ft 462kts
06-Oct-20 15:38 41.863959 -118.048894 332 36222ft 463kts
06-Oct-20 15:39 41.981542 -118.118449 337 36221ft 463kts
06-Oct-20 15:40 42.100193 -118.185776 337 36221ft 463kts
06-Oct-20 15:41 42.218554 -118.253305 337 36221ft 463kts
06-Oct-20 15:42 42.336668 -118.321218 337 36221ft 463kts
06-Oct-20 15:43 42.454911 -118.389541 337 36221ft 463kts
06-Oct-20 15:44 42.572924 -118.458019 337 36221ft 463kts
06-Oct-20 15:45 42.691107 -118.526880 337 36221ft 463kts
06-Oct-20 15:46 42.809475 -118.596135 337 36221ft 463kts
06-Oct-20 15:47 42.927433 -118.665487 335 36224ft 462kts
06-Oct-20 15:48 43.044464 -118.734928 335 36233ft 458kts
06-Oct-20 15:49 43.161074 -118.803969 335 36236ft 457kts
06-Oct-20 15:50 43.277963 -118.873348 335 36236ft 459kts
06-Oct-20 15:51 43.394784 -118.943126 335 36236ft 461kts
06-Oct-20 15:52 43.512486 -119.013749 335 36236ft 463kts
06-Oct-20 15:53 43.630772 -119.085031 335 36236ft 465kts
06-Oct-20 15:54 43.749105 -119.156652 335 36236ft 465kts
06-Oct-20 15:55 43.867326 -119.228505 335 36236ft 465kts
06-Oct-20 15:56 43.985173 -119.300446 335 36219ft 465kts
06-Oct-20 15:57 44.103187 -119.372805 335 36197ft 465kts
06-Oct-20 15:58 44.221385 -119.445308 335 36193ft 465kts
06-Oct-20 15:59 44.339298 -119.518229 335 36193ft 465kts
06-Oct-20 16:00 44.457174 -119.591524 335 36193ft 465kts
06-Oct-20 16:01 44.574926 -119.665097 335 36192ft 465kts
06-Oct-20 16:02 44.698462 -119.717651 349 36193ft 467kts
06-Oct-20 16:03 44.827234 -119.738079 353 36193ft 467kts
06-Oct-20 16:04 44.956317 -119.756789 353 36193ft 467kts
06-Oct-20 16:06 45.084913 -119.775772 352 36157ft 463kts
06-Oct-20 16:07 45.212345 -119.794731 352 36091ft 461kts
06-Oct-20 16:08 45.339612 -119.813780 352 36076ft 461kts
06-Oct-20 16:09 45.467114 -119.832946 352 36073ft 461kts
06-Oct-20 16:10 45.594110 -119.852131 352 36073ft 461kts
06-Oct-20 16:11 45.721447 -119.871451 352 36073ft 461kts
06-Oct-20 16:12 45.848796 -119.890871 352 36073ft 461kts
06-Oct-20 16:13 45.976217 -119.910400 352 35864ft 461kts
06-Oct-20 16:14 46.102408 -119.929824 352 34063ft 456kts
06-Oct-20 16:15 46.229109 -119.949377 352 31455ft 457kts
06-Oct-20 16:16 46.335370 -120.028138 308 29664ft 428kts
06-Oct-20 16:17 46.408586 -120.158155 307 27941ft 415kts
06-Oct-20 16:18 46.480669 -120.285635 307 26221ft 404kts
06-Oct-20 16:19 46.550986 -120.410136 307 24535ft 393kts
06-Oct-20 16:20 46.615091 -120.537656 303 24059ft 394kts
06-Oct-20 16:21 46.677469 -120.668662 302 22674ft 389kts
06-Oct-20 16:21 46.727881 -120.775120 302 21301ft 379kts
06-Oct-20 16:23 46.796549 -120.920422 302 19422ft 367kts
06-Oct-20 16:24 46.853529 -121.041505 303 17849ft 357kts
06-Oct-20 16:24 46.899774 -121.140168 303 16572ft 347kts
06-Oct-20 16:26 46.962150 -121.273807 303 14783ft 335kts
06-Oct-20 16:27 47.013512 -121.384369 303 13280ft 324kts
06-Oct-20 16:28 47.063092 -121.491533 303 12023ft 302kts
06-Oct-20 16:28 47.100189 -121.571936 303 12017ft 282kts
06-Oct-20 16:29 47.138784 -121.670949 278 11958ft 277kts
06-Oct-20 16:30 47.145059 -121.783678 275 10337ft 276kts
06-Oct-20 16:31 47.150245 -121.895341 275 8793ft 273kts
06-Oct-20 16:32 47.155158 -122.006384 275 7262ft 271kts
06-Oct-20 16:33 47.160069 -122.116003 275 5775ft 268kts
06-Oct-20 16:34 47.167881 -122.223538 298 4279ft 263kts
06-Oct-20 16:35 47.225585 -122.276896 335 3450ft 233kts
06-Oct-20 16:36 47.281976 -122.308044 356 2973ft 193kts
06-Oct-20 16:37 47.331582 -122.308798 359 2134ft 157kts
06-Oct-20 16:38 47.370822 -122.308527 359 1465ft 136kts
06-Oct-20 16:39 47.409078 -122.308112 358 787ft 135kts
06-Oct-20 16:40 47.442232 -122.307943 0 335ft 37kts
06-Oct-20 16:41 47.444939 -122.306232 181 335ft 12kts
06-Oct-20 16:42 47.442616 -122.303938 137 335ft 1kts
06-Oct-20 16:43 47.442522 -122.303805 138 335ft 0kts

Navigation Log

Ident Type
Flight plan parsing failed, navigation log unavailable